Time;durP1;ratioP1;P1;durP2;ratioP2;P2;SDS_P1;SDS_P2;PMS_P1;PMS_P2;Temp;Humidity;BMP_temperature;BMP_pressure;BME280_temperature;BME280_humidity;BME280_pressure;Samples;Min_cycle;Max_cycle;Signal;HPM_P1;HPM_P2
2022/04/16 00:00:27;;;;;;;2.88;1.70;;;21.60;51.40;;;;;;4935165;29;20036;-74
2022/04/16 00:02:57;;;;;;;4.32;1.80;;;21.60;51.30;;;;;;4935487;28;20515;-74
2022/04/16 00:05:23;;;;;;;2.97;1.45;;;21.60;51.20;;;;;;4934710;29;20031;-74
2022/04/16 00:08:06;;;;;;;3.35;1.70;;;21.60;51.30;;;;;;4934471;29;20036;-74
2022/04/16 00:10:37;;;;;;;2.58;1.70;;;21.50;51.20;;;;;;4935074;29;20031;-74
2022/04/16 00:13:04;;;;;;;3.33;1.90;;;21.50;51.20;;;;;;4935981;29;20058;-74
2022/04/16 00:15:30;;;;;;;2.95;1.80;;;21.60;51.30;;;;;;4918664;29;20103;-74
2022/04/16 00:17:56;;;;;;;3.55;2.00;;;21.60;51.20;;;;;;4934438;29;20035;-74
2022/04/16 00:20:25;;;;;;;3.88;1.80;;;21.60;51.30;;;;;;4934219;29;20035;-74
2022/04/16 00:22:54;;;;;;;4.33;1.70;;;21.60;51.00;;;;;;4935857;29;20132;-74
2022/04/16 00:25:21;;;;;;;2.55;1.60;;;21.50;51.10;;;;;;4935861;29;20117;-74
2022/04/16 00:27:47;;;;;;;2.42;1.65;;;21.60;51.00;;;;;;4935401;29;20031;-74
2022/04/16 00:30:13;;;;;;;3.00;1.70;;;21.50;51.20;;;;;;4934175;29;20035;-74
2022/04/16 00:32:40;;;;;;;2.40;1.60;;;21.50;51.00;;;;;;4934104;29;20702;-73
2022/04/16 00:35:07;;;;;;;2.85;1.77;;;21.60;51.20;;;;;;4934016;29;20514;-73
2022/04/16 00:37:34;;;;;;;1.98;1.48;;;21.50;51.00;;;;;;4935129;29;20083;-73
2022/04/16 00:40:00;;;;;;;2.65;1.70;;;21.60;51.10;;;;;;4934529;29;20052;-74
2022/04/16 00:42:31;;;;;;;2.55;1.60;;;21.50;51.10;;;;;;4935438;29;20508;-73
2022/04/16 00:44:57;;;;;;;3.03;1.77;;;21.50;51.00;;;;;;4935694;29;20073;-73
2022/04/16 00:47:22;;;;;;;2.78;1.80;;;21.50;50.90;;;;;;4934129;28;20493;-73
2022/04/16 00:49:48;;;;;;;3.20;1.73;;;21.50;51.00;;;;;;4935212;29;20484;-74
2022/04/16 00:52:14;;;;;;;2.28;1.50;;;21.50;51.50;;;;;;4935183;29;20047;-73
2022/04/16 00:54:40;;;;;;;2.47;1.65;;;21.50;51.00;;;;;;4935275;29;20043;-73
2022/04/16 00:57:06;;;;;;;3.30;1.63;;;21.50;51.30;;;;;;4935004;29;20040;-73
2022/04/16 00:59:31;;;;;;;2.67;1.63;;;21.50;51.00;;;;;;4935220;29;20074;-74
2022/04/16 01:01:59;;;;;;;2.58;1.63;;;21.50;50.90;;;;;;4935061;29;20031;-73
2022/04/16 01:04:25;;;;;;;2.75;1.30;;;21.50;50.90;;;;;;4933734;29;20036;-73
2022/04/16 01:06:51;;;;;;;2.50;1.75;;;21.50;50.90;;;;;;4934983;29;20380;-74
2022/04/16 01:09:17;;;;;;;2.90;1.70;;;21.50;50.80;;;;;;4934562;29;20123;-74
2022/04/16 01:11:44;;;;;;;2.67;1.50;;;21.50;50.90;;;;;;4933916;29;20031;-73
2022/04/16 01:14:10;;;;;;;3.13;1.73;;;21.50;50.80;;;;;;4934820;29;20058;-74
2022/04/16 01:16:36;;;;;;;1.80;1.30;;;21.50;50.80;;;;;;4934711;29;20031;-73
2022/04/16 01:19:03;;;;;;;3.42;1.77;;;21.50;50.70;;;;;;4933129;29;20039;-74
2022/04/16 01:21:28;;;;;;;3.00;1.50;;;21.50;50.90;;;;;;4934723;29;20140;-73
2022/04/16 01:23:54;;;;;;;2.47;1.60;;;21.50;50.80;;;;;;4933424;29;20114;-73
2022/04/16 01:26:22;;;;;;;3.08;1.60;;;21.50;50.90;;;;;;4934598;29;20067;-74
2022/04/16 01:28:48;;;;;;;2.63;1.48;;;21.50;50.70;;;;;;4933647;29;20385;-73
2022/04/16 01:31:14;;;;;;;3.58;1.58;;;21.50;50.60;;;;;;4934367;29;20032;-74
2022/04/16 01:33:39;;;;;;;2.55;1.45;;;21.50;50.80;;;;;;4932911;29;20403;-73
2022/04/16 01:36:05;;;;;;;4.00;1.55;;;21.50;50.70;;;;;;4933458;28;20506;-73
2022/04/16 01:38:31;;;;;;;2.50;1.75;;;21.50;50.80;;;;;;4934067;29;20425;-74
2022/04/16 01:40:58;;;;;;;3.83;1.73;;;21.40;50.70;;;;;;4934398;29;20028;-73
2022/04/16 01:43:24;;;;;;;1.95;1.58;;;21.40;50.60;;;;;;4934366;29;20103;-74
2022/04/16 01:45:50;;;;;;;2.35;1.60;;;21.40;50.70;;;;;;4934265;29;20035;-73
2022/04/16 01:48:17;;;;;;;3.30;1.67;;;21.40;50.60;;;;;;4901613;29;20385;-73
2022/04/16 01:50:42;;;;;;;2.55;1.58;;;21.40;50.70;;;;;;4934383;29;20028;-73
2022/04/16 01:53:08;;;;;;;2.33;1.50;;;21.40;50.80;;;;;;4933063;29;20024;-73
2022/04/16 01:55:34;;;;;;;2.80;1.33;;;21.40;50.60;;;;;;4934211;29;20028;-73
2022/04/16 01:58:00;;;;;;;1.92;1.40;;;21.40;50.60;;;;;;4933920;29;20063;-73
2022/04/16 02:00:26;;;;;;;2.72;1.77;;;21.40;50.70;;;;;;4932460;29;20031;-73
2022/04/16 02:02:52;;;;;;;3.13;1.65;;;21.40;50.70;;;;;;4934085;29;20060;-73
2022/04/16 02:05:18;;;;;;;3.13;1.40;;;21.40;50.60;;;;;;4934047;29;20043;-73
2022/04/16 02:07:43;;;;;;;3.33;1.52;;;21.40;50.50;;;;;;4933935;29;20035;-73
2022/04/16 02:10:12;;;;;;;2.28;1.40;;;21.40;50.60;;;;;;4934067;29;20087;-73
2022/04/16 02:12:38;;;;;;;1.98;1.27;;;21.40;50.60;;;;;;4934160;29;20032;-73
2022/04/16 02:15:06;;;;;;;1.65;1.17;;;21.40;50.60;;;;;;4933674;29;20123;-73
2022/04/16 02:17:32;;;;;;;1.95;1.50;;;21.40;50.60;;;;;;4933697;29;20032;-73
2022/04/16 02:19:58;;;;;;;1.52;1.10;;;21.40;50.50;;;;;;4932777;29;20032;-73
2022/04/16 02:22:24;;;;;;;2.78;1.30;;;21.40;50.50;;;;;;4933911;29;20058;-73
2022/04/16 02:24:50;;;;;;;1.50;1.20;;;21.40;50.50;;;;;;4933782;29;20065;-73
2022/04/16 02:27:15;;;;;;;2.20;1.40;;;21.40;50.40;;;;;;4932367;29;20032;-74
2022/04/16 02:29:42;;;;;;;2.08;1.30;;;21.40;50.60;;;;;;4933693;29;20055;-73
2022/04/16 02:32:08;;;;;;;2.45;1.50;;;21.40;50.70;;;;;;4932602;29;20082;-74
2022/04/16 02:34:33;;;;;;;2.22;1.27;;;21.30;50.70;;;;;;4932553;29;20292;-74
2022/04/16 02:36:59;;;;;;;2.40;1.35;;;21.40;50.60;;;;;;4932496;29;20167;-73
2022/04/16 02:39:25;;;;;;;2.55;1.42;;;21.40;50.70;;;;;;4933412;29;20020;-73
2022/04/16 02:41:51;;;;;;;3.40;1.63;;;21.40;50.60;;;;;;4933879;29;20047;-74
2022/04/16 02:47:05;;;;;;;2.35;1.52;;;21.30;50.50;;;;;;4926005;29;20496;-73
2022/04/16 02:49:39;;;;;;;2.67;1.55;;;21.30;50.70;;;;;;4937428;29;20032;-74
2022/04/16 02:52:06;;;;;;;2.25;1.40;;;21.40;50.50;;;;;;4936520;29;20062;-73
2022/04/16 02:54:32;;;;;;;4.07;1.55;;;21.30;50.50;;;;;;4920279;29;20408;-74
2022/04/16 02:56:57;;;;;;;2.92;1.33;;;21.30;50.30;;;;;;4937280;29;20035;-74
2022/04/16 02:59:23;;;;;;;3.83;1.60;;;21.30;50.50;;;;;;4937141;29;20406;-73
2022/04/16 03:01:49;;;;;;;2.83;1.48;;;21.30;50.30;;;;;;4937325;29;20028;-74
2022/04/16 03:04:15;;;;;;;2.33;1.10;;;21.30;50.30;;;;;;4937187;29;20119;-74
2022/04/16 03:06:40;;;;;;;2.47;1.40;;;21.30;50.40;;;;;;4937005;29;20090;-74
2022/04/16 03:09:06;;;;;;;2.75;1.52;;;21.30;50.40;;;;;;4937004;29;20039;-73
2022/04/16 03:11:32;;;;;;;2.65;1.40;;;21.30;50.20;;;;;;4935889;29;20484;-73
2022/04/16 03:17:31;;;;;;;2.53;1.20;;;21.30;50.50;;;;;;4920272;29;20074;-74
2022/04/16 03:19:27;;;;;;;2.05;1.10;;;21.30;50.30;;;;;;4936587;29;20032;-73
2022/04/16 03:21:53;;;;;;;2.63;1.60;;;21.30;50.20;;;;;;4936808;29;20079;-73
2022/04/16 03:24:19;;;;;;;2.00;1.17;;;21.30;50.20;;;;;;4936934;29;20039;-74
2022/04/16 03:26:44;;;;;;;2.33;1.30;;;21.30;50.00;;;;;;4936595;29;20027;-73
2022/04/16 03:29:10;;;;;;;2.63;1.45;;;21.30;50.10;;;;;;4935123;29;20118;-74
2022/04/16 03:31:36;;;;;;;2.53;1.38;;;21.30;50.10;;;;;;4935542;29;20055;-73
2022/04/16 03:34:01;;;;;;;2.50;1.55;;;21.20;50.10;;;;;;4935664;29;20519;-74
2022/04/16 03:36:27;;;;;;;2.17;1.38;;;21.30;50.10;;;;;;4936542;29;20517;-73
2022/04/16 03:38:53;;;;;;;2.05;1.40;;;21.20;50.30;;;;;;4936273;29;20031;-73
2022/04/16 03:41:19;;;;;;;2.47;1.55;;;21.20;50.10;;;;;;4935321;29;20032;-73
2022/04/16 03:43:45;;;;;;;2.47;1.40;;;21.20;50.30;;;;;;4936532;29;20127;-73
2022/04/16 03:46:11;;;;;;;1.58;1.30;;;21.20;50.20;;;;;;4936760;29;20551;-73
2022/04/16 03:48:37;;;;;;;2.67;1.30;;;21.20;50.50;;;;;;4936105;29;20063;-73
2022/04/16 03:51:03;;;;;;;2.05;1.13;;;21.20;50.40;;;;;;4936223;29;20111;-73
2022/04/16 03:53:29;;;;;;;3.17;1.40;;;21.20;50.10;;;;;;4935162;29;20107;-74
2022/04/16 04:01:24;;;;;;;1.85;1.30;;;21.20;50.10;;;;;;4934744;29;20378;-73
2022/04/16 04:03:50;;;;;;;2.45;1.55;;;21.20;50.00;;;;;;4936096;29;20094;-73
2022/04/16 04:06:15;;;;;;;2.35;1.30;;;21.20;50.00;;;;;;4934772;29;20501;-73
2022/04/16 04:08:41;;;;;;;3.35;1.30;;;21.20;50.00;;;;;;4935983;28;20040;-73
2022/04/16 04:11:07;;;;;;;2.30;1.40;;;21.20;50.00;;;;;;4934745;29;20032;-73
2022/04/16 04:13:32;;;;;;;2.67;1.42;;;21.20;50.20;;;;;;4936054;29;20036;-73
2022/04/16 04:15:58;;;;;;;1.65;1.20;;;21.20;50.20;;;;;;4935975;29;20115;-74
2022/04/16 04:18:24;;;;;;;2.40;1.38;;;21.20;50.10;;;;;;4934429;29;20032;-73
2022/04/16 04:20:50;;;;;;;1.73;1.10;;;21.10;50.20;;;;;;4936046;29;20115;-73
2022/04/16 04:23:18;;;;;;;2.35;1.30;;;21.20;50.00;;;;;;4935948;29;20504;-74
2022/04/16 04:25:44;;;;;;;2.17;1.30;;;21.20;50.00;;;;;;4935573;29;20028;-73
2022/04/16 04:28:11;;;;;;;1.98;1.40;;;21.20;50.20;;;;;;4934393;29;20032;-74
2022/04/16 04:30:37;;;;;;;2.63;1.50;;;21.20;49.90;;;;;;4934341;29;20102;-74
2022/04/16 04:33:02;;;;;;;2.30;1.40;;;21.20;50.00;;;;;;4936084;29;20110;-73
2022/04/16 04:35:28;;;;;;;1.98;1.20;;;21.20;50.20;;;;;;4934350;29;20434;-74
2022/04/16 04:37:54;;;;;;;2.35;1.33;;;21.20;50.00;;;;;;4935201;28;20086;-73
2022/04/16 04:40:20;;;;;;;2.00;1.33;;;21.20;50.10;;;;;;4935529;29;20035;-74
2022/04/16 04:42:46;;;;;;;2.75;1.35;;;21.20;49.80;;;;;;4935252;29;20119;-74
2022/04/16 04:45:14;;;;;;;2.45;1.40;;;21.20;50.70;;;;;;4934249;29;20071;-74
2022/04/16 04:47:40;;;;;;;2.30;1.30;;;21.20;50.10;;;;;;4935006;29;20036;-74
2022/04/16 04:50:07;;;;;;;2.78;1.60;;;21.20;50.00;;;;;;4934133;29;20170;-73
2022/04/16 04:52:34;;;;;;;2.42;1.45;;;21.20;49.90;;;;;;4933665;29;20091;-73
2022/04/16 04:55:00;;;;;;;2.45;1.30;;;21.20;50.30;;;;;;4918283;29;20451;-74
2022/04/16 04:57:27;;;;;;;1.73;1.33;;;21.20;50.20;;;;;;4934661;29;20109;-74
2022/04/16 04:59:53;;;;;;;2.97;1.48;;;21.20;50.20;;;;;;4935107;29;20038;-73
2022/04/16 05:02:19;;;;;;;1.88;1.33;;;21.20;50.00;;;;;;4933941;29;20056;-73
2022/04/16 05:04:45;;;;;;;2.42;1.40;;;21.20;50.10;;;;;;4933706;29;20429;-73
2022/04/16 05:07:11;;;;;;;2.25;1.55;;;21.10;50.00;;;;;;4932572;29;20378;-74
2022/04/16 05:09:37;;;;;;;2.00;1.48;;;21.10;50.20;;;;;;4935105;29;20032;-73
2022/04/16 05:12:03;;;;;;;2.55;1.52;;;21.10;50.00;;;;;;4934792;29;20413;-73
2022/04/16 05:14:29;;;;;;;2.60;1.40;;;21.10;49.80;;;;;;4933712;29;20445;-73
2022/04/16 05:16:55;;;;;;;2.67;1.58;;;21.10;49.70;;;;;;4933702;29;20040;-73
2022/04/16 05:19:21;;;;;;;3.13;1.52;;;21.10;50.00;;;;;;4933452;29;20028;-73
2022/04/16 05:21:47;;;;;;;3.55;1.70;;;21.10;49.70;;;;;;4933673;29;20024;-73
2022/04/16 05:24:13;;;;;;;2.95;1.40;;;21.10;49.70;;;;;;4933463;29;20099;-73
2022/04/16 05:26:38;;;;;;;3.55;1.77;;;21.10;50.10;;;;;;4934495;29;20028;-73
2022/04/16 05:29:05;;;;;;;2.47;1.40;;;21.10;50.00;;;;;;4933016;28;20079;-73
2022/04/16 05:31:31;;;;;;;2.70;1.58;;;21.10;50.00;;;;;;4917792;29;20035;-73
2022/04/16 05:36:43;;;;;;;3.67;1.42;;;21.10;49.80;;;;;;4934509;29;20031;-73
2022/04/16 05:39:09;;;;;;;3.03;1.80;;;21.10;49.70;;;;;;4934085;29;20034;-73
2022/04/16 05:41:35;;;;;;;2.80;1.58;;;21.10;49.80;;;;;;4917584;29;20035;-74
2022/04/16 05:44:02;;;;;;;1.70;1.48;;;21.10;49.60;;;;;;4933344;29;20043;-74
2022/04/16 05:46:28;;;;;;;3.00;1.50;;;21.10;49.90;;;;;;4933203;29;20489;-75
2022/04/16 05:48:53;;;;;;;2.42;1.58;;;21.10;49.80;;;;;;4932721;29;20086;-74
2022/04/16 05:51:20;;;;;;;2.72;1.67;;;21.10;49.90;;;;;;4934127;28;20067;-74
2022/04/16 05:53:48;;;;;;;3.15;1.50;;;21.10;49.80;;;;;;4917249;29;20028;-74
2022/04/16 05:56:14;;;;;;;2.80;1.73;;;21.10;49.60;;;;;;4917537;29;20036;-74
2022/04/16 05:58:43;;;;;;;3.17;1.70;;;21.10;50.00;;;;;;4934013;29;20035;-74
2022/04/16 06:01:10;;;;;;;2.85;1.40;;;21.10;49.70;;;;;;4934369;29;20032;-74
2022/04/16 06:03:39;;;;;;;2.78;1.50;;;21.10;49.80;;;;;;4934070;29;20028;-73
2022/04/16 06:06:06;;;;;;;2.58;1.60;;;21.10;49.70;;;;;;4934067;29;20030;-73
2022/04/16 06:08:31;;;;;;;2.53;1.50;;;21.10;50.00;;;;;;4933587;29;20055;-74
2022/04/16 06:10:57;;;;;;;2.78;1.42;;;21.10;49.90;;;;;;4933065;29;20059;-74
2022/04/16 06:13:23;;;;;;;2.13;1.60;;;21.10;49.60;;;;;;4933948;29;20032;-73
2022/04/16 06:15:48;;;;;;;2.05;1.50;;;21.10;49.80;;;;;;4933609;29;20045;-73
2022/04/16 06:18:14;;;;;;;2.60;1.50;;;21.10;49.70;;;;;;4935981;29;20469;-74
2022/04/16 06:20:40;;;;;;;2.40;1.52;;;21.10;49.70;;;;;;4940538;29;20257;-74
2022/04/16 06:23:07;;;;;;;2.95;1.58;;;21.10;49.60;;;;;;4923483;29;20031;-74
2022/04/16 06:25:33;;;;;;;1.80;1.38;;;21.10;49.60;;;;;;4923226;29;20043;-73
2022/04/16 06:27:59;;;;;;;2.15;1.50;;;21.10;49.60;;;;;;4938907;29;20039;-74
2022/04/16 06:30:25;;;;;;;4.75;1.92;;;21.10;49.70;;;;;;4940196;29;20027;-74
2022/04/16 06:32:51;;;;;;;3.70;1.75;;;21.10;49.70;;;;;;4940228;29;20090;-74
2022/04/16 06:35:16;;;;;;;2.90;1.70;;;21.10;49.70;;;;;;4940149;29;20032;-74
2022/04/16 06:37:42;;;;;;;1.73;1.35;;;21.10;49.70;;;;;;4939872;29;20445;-74
2022/04/16 06:40:09;;;;;;;2.72;1.80;;;21.00;49.60;;;;;;4940062;29;20031;-74
2022/04/16 06:42:36;;;;;;;3.22;1.80;;;21.10;49.60;;;;;;4938970;29;20118;-74
2022/04/16 06:45:05;;;;;;;2.60;1.67;;;21.00;49.50;;;;;;4940078;29;20472;-74
2022/04/16 06:47:30;;;;;;;2.53;1.83;;;21.00;49.60;;;;;;4939812;29;20027;-73
2022/04/16 06:49:56;;;;;;;2.25;1.50;;;21.00;49.60;;;;;;4938929;29;20453;-74
2022/04/16 06:52:22;;;;;;;2.80;1.60;;;21.00;49.50;;;;;;4938877;29;20398;-74
2022/04/16 06:54:48;;;;;;;4.30;1.80;;;21.00;49.40;;;;;;4938717;29;20118;-74
2022/04/16 06:57:14;;;;;;;1.85;1.38;;;21.10;49.50;;;;;;4939969;29;20023;-74
2022/04/16 06:59:40;;;;;;;2.33;1.52;;;21.10;49.50;;;;;;4939986;29;20027;-74
2022/04/16 07:02:08;;;;;;;4.15;1.92;;;21.00;49.60;;;;;;4939179;29;20063;-74
2022/04/16 07:04:34;;;;;;;1.98;1.50;;;21.00;49.30;;;;;;4938771;29;20126;-74
2022/04/16 07:06:59;;;;;;;3.55;1.88;;;21.00;49.30;;;;;;4939820;29;20520;-73
2022/04/16 07:09:25;;;;;;;3.03;1.80;;;21.10;49.50;;;;;;4938893;28;20028;-74
2022/04/16 07:11:51;;;;;;;4.25;1.60;;;21.10;49.50;;;;;;4939885;29;20388;-74
2022/04/16 07:14:17;;;;;;;2.97;1.77;;;21.10;49.10;;;;;;4922829;29;20138;-74
2022/04/16 07:16:42;;;;;;;2.63;1.58;;;21.10;49.20;;;;;;4939774;29;20023;-73
2022/04/16 07:19:09;;;;;;;2.92;1.80;;;21.10;49.20;;;;;;4922613;29;20492;-75
2022/04/16 07:21:35;;;;;;;3.10;1.95;;;21.20;49.10;;;;;;4939930;29;20023;-74
2022/04/16 07:24:00;;;;;;;2.92;1.70;;;21.20;49.20;;;;;;4939657;29;20039;-74
2022/04/16 07:26:26;;;;;;;2.28;1.60;;;21.20;49.30;;;;;;4938546;29;20032;-74
2022/04/16 07:28:52;;;;;;;3.20;2.00;;;21.20;49.30;;;;;;4939443;29;20059;-74
2022/04/16 07:31:18;;;;;;;2.38;1.60;;;21.20;49.30;;;;;;4935819;29;20111;-74
2022/04/16 07:33:43;;;;;;;2.58;1.77;;;21.20;49.40;;;;;;4936609;29;20456;-74
2022/04/16 07:36:09;;;;;;;2.88;1.88;;;21.20;49.20;;;;;;4935331;29;20031;-74
2022/04/16 07:38:35;;;;;;;2.83;1.80;;;21.20;49.20;;;;;;4936483;29;20024;-74
2022/04/16 07:41:03;;;;;;;2.92;1.98;;;21.20;49.00;;;;;;4936648;29;20424;-74
2022/04/16 07:43:29;;;;;;;2.60;1.70;;;21.20;49.00;;;;;;4935345;29;20028;-74
2022/04/16 07:45:56;;;;;;;2.20;1.48;;;21.20;49.00;;;;;;4936432;29;20020;-74
2022/04/16 07:48:21;;;;;;;4.63;2.10;;;21.20;49.00;;;;;;4936124;29;20041;-74
2022/04/16 07:50:48;;;;;;;2.63;1.80;;;21.20;49.00;;;;;;4935147;29;20032;-74
2022/04/16 07:53:14;;;;;;;4.38;1.90;;;21.20;48.90;;;;;;4935437;28;20106;-74
2022/04/16 07:55:39;;;;;;;3.85;1.85;;;21.20;48.90;;;;;;4936061;29;20520;-74
2022/04/16 07:58:05;;;;;;;3.20;1.98;;;21.20;48.80;;;;;;4936089;29;20024;-74
2022/04/16 08:00:31;;;;;;;2.42;1.67;;;21.20;48.90;;;;;;4936286;29;20028;-74
2022/04/16 08:02:57;;;;;;;3.17;1.77;;;21.20;48.90;;;;;;4935326;29;20087;-74
2022/04/16 08:05:22;;;;;;;3.17;1.90;;;21.30;48.90;;;;;;4935926;29;20032;-75
2022/04/16 08:07:49;;;;;;;3.80;1.90;;;21.20;48.90;;;;;;4935949;29;20528;-75
2022/04/16 08:10:15;;;;;;;4.10;1.80;;;21.30;49.00;;;;;;4935599;29;20031;-74
2022/04/16 08:12:41;;;;;;;3.72;2.03;;;21.30;49.10;;;;;;4936060;29;20049;-75
2022/04/16 08:15:06;;;;;;;3.20;1.92;;;21.30;48.90;;;;;;4934581;29;20035;-75
2022/04/16 08:17:33;;;;;;;3.42;1.77;;;21.30;49.00;;;;;;4918571;29;20035;-75
2022/04/16 08:19:59;;;;;;;2.60;1.90;;;21.30;49.20;;;;;;4935855;29;20055;-75
2022/04/16 08:22:28;;;;;;;4.18;1.92;;;21.30;49.00;;;;;;4934875;29;20481;-75
2022/04/16 08:25:43;;;;;;;2.63;1.77;;;21.30;49.00;;;;;;4934470;29;20032;-75
2022/04/16 08:27:42;;;;;;;3.35;1.90;;;21.30;49.10;;;;;;4935391;29;20094;-74
2022/04/16 08:30:10;;;;;;;3.15;1.95;;;21.30;48.80;;;;;;4934289;29;20477;-75
2022/04/16 08:32:36;;;;;;;3.13;1.90;;;21.30;49.00;;;;;;4934706;29;20046;-75
2022/04/16 08:35:06;;;;;;;2.67;1.90;;;21.30;48.90;;;;;;4935378;29;20548;-74
2022/04/16 08:37:31;;;;;;;3.13;1.70;;;21.30;49.20;;;;;;4934371;28;20051;-74
2022/04/16 08:39:57;;;;;;;2.63;1.70;;;21.30;49.10;;;;;;4934200;29;20059;-75
2022/04/16 08:42:23;;;;;;;3.63;1.88;;;21.30;49.20;;;;;;4935554;29;20059;-74
2022/04/16 08:44:49;;;;;;;2.78;1.90;;;21.30;49.20;;;;;;4935228;29;20028;-74
2022/04/16 08:47:16;;;;;;;1.98;1.58;;;21.30;49.20;;;;;;4934996;29;20061;-75
2022/04/16 08:49:44;;;;;;;3.47;1.80;;;21.30;49.30;;;;;;4934074;29;20031;-75
2022/04/16 08:52:13;;;;;;;4.32;2.03;;;21.30;49.30;;;;;;4935387;29;20054;-74
2022/04/16 08:54:41;;;;;;;3.10;1.95;;;21.30;49.30;;;;;;4934081;29;20040;-75
2022/04/16 08:57:07;;;;;;;3.90;1.75;;;21.30;49.30;;;;;;4933832;29;20032;-75
2022/04/16 08:59:32;;;;;;;3.33;1.95;;;21.30;49.40;;;;;;4933927;29;20043;-75
2022/04/16 09:01:59;;;;;;;4.70;2.00;;;21.30;49.30;;;;;;4935204;29;20031;-75
2022/04/16 09:04:30;;;;;;;2.60;1.83;;;21.30;49.20;;;;;;4935580;29;20059;-75
2022/04/16 09:07:02;;;;;;;3.28;1.90;;;21.30;49.30;;;;;;4934975;29;20032;-75
2022/04/16 09:09:28;;;;;;;3.50;2.08;;;21.30;49.30;;;;;;4933428;29;20035;-75
2022/04/16 09:11:55;;;;;;;2.45;1.80;;;21.30;49.40;;;;;;4934724;29;20489;-75
2022/04/16 09:14:33;;;;;;;3.80;1.95;;;21.30;49.30;;;;;;4934905;29;20207;-75
2022/04/16 09:16:59;;;;;;;3.10;1.92;;;21.30;49.40;;;;;;4934418;29;20055;-75
2022/04/16 09:19:29;;;;;;;3.08;1.80;;;21.30;49.30;;;;;;4933594;29;20024;-74
2022/04/16 09:21:55;;;;;;;2.97;2.00;;;21.30;49.90;;;;;;4934675;29;20023;-75
2022/04/16 09:24:21;;;;;;;2.92;1.92;;;21.30;49.40;;;;;;4933728;29;20490;-75
2022/04/16 09:26:49;;;;;;;2.60;1.90;;;21.30;49.30;;;;;;4933468;29;20063;-74
2022/04/16 09:29:16;;;;;;;2.72;1.80;;;21.30;49.40;;;;;;4934476;29;20028;-75
2022/04/16 09:31:46;;;;;;;2.53;1.70;;;21.30;49.40;;;;;;4933548;29;20485;-74
2022/04/16 09:34:19;;;;;;;2.67;1.60;;;21.30;49.80;;;;;;4934518;29;20118;-75
2022/04/16 09:36:46;;;;;;;2.42;1.50;;;21.30;49.40;;;;;;4933227;29;20031;-74
2022/04/16 09:39:12;;;;;;;3.05;1.70;;;21.30;49.20;;;;;;4934286;29;20032;-75
2022/04/16 09:41:40;;;;;;;3.53;2.10;;;21.30;49.20;;;;;;4933257;29;20075;-75
2022/04/16 09:44:25;;;;;;;3.35;1.80;;;21.30;49.30;;;;;;4934552;29;20023;-75
2022/04/16 09:46:52;;;;;;;2.42;1.90;;;21.30;49.10;;;;;;4934225;29;20546;-75
2022/04/16 09:49:19;;;;;;;3.30;1.70;;;21.30;49.30;;;;;;4933929;29;20028;-75
2022/04/16 09:51:46;;;;;;;3.72;2.13;;;21.30;49.10;;;;;;4933086;29;20079;-74
2022/04/16 09:54:13;;;;;;;2.85;1.83;;;21.30;49.30;;;;;;4932842;29;20055;-74
2022/04/16 09:56:40;;;;;;;3.90;2.10;;;21.30;49.30;;;;;;4932745;29;20054;-74
2022/04/16 09:59:12;;;;;;;3.22;2.00;;;21.30;49.40;;;;;;4933882;29;20035;-74
2022/04/16 10:01:39;;;;;;;4.18;2.10;;;21.30;49.30;;;;;;4934213;29;20075;-74
2022/04/16 10:04:06;;;;;;;3.25;1.80;;;21.30;49.30;;;;;;4933076;29;20087;-74
2022/04/16 10:06:32;;;;;;;3.13;1.75;;;21.30;49.50;;;;;;4951556;23;20488;-75
2022/04/16 10:09:00;;;;;;;3.90;1.90;;;21.30;49.50;;;;;;4933005;29;20112;-75
2022/04/16 10:11:42;;;;;;;2.65;1.90;;;21.30;49.50;;;;;;4933938;29;20086;-75
2022/04/16 10:14:22;;;;;;;4.10;1.77;;;21.30;49.50;;;;;;4934205;29;20032;-75
2022/04/16 10:17:25;;;;;;;2.95;2.00;;;21.30;49.50;;;;;;4934006;29;20114;-75
2022/04/16 10:19:54;;;;;;;3.35;1.90;;;21.30;49.60;;;;;;4932809;29;20028;-75
2022/04/16 10:22:27;;;;;;;3.40;2.08;;;21.30;49.60;;;;;;4932860;29;20035;-75
2022/04/16 10:24:57;;;;;;;3.00;1.80;;;21.30;49.60;;;;;;4933105;29;20040;-74
2022/04/16 10:27:30;;;;;;;3.50;1.88;;;21.30;49.50;;;;;;4916847;29;20074;-74
2022/04/16 10:30:01;;;;;;;3.25;2.03;;;21.20;49.50;;;;;;4934056;29;20114;-74
2022/04/16 10:32:40;;;;;;;2.70;1.83;;;21.30;49.50;;;;;;4932770;29;20036;-74
2022/04/16 10:35:10;;;;;;;3.08;1.70;;;21.20;49.40;;;;;;4933965;29;20420;-75
2022/04/16 10:37:41;;;;;;;2.92;1.80;;;21.20;49.50;;;;;;4933587;29;20052;-75
2022/04/16 10:40:20;;;;;;;2.65;1.60;;;21.20;49.50;;;;;;4933974;29;20036;-75
2022/04/16 10:42:48;;;;;;;2.75;1.90;;;21.30;49.50;;;;;;4933803;29;20079;-75
2022/04/16 10:45:14;;;;;;;3.17;1.90;;;21.30;49.40;;;;;;4932874;29;20500;-74
2022/04/16 10:47:41;;;;;;;3.30;1.92;;;21.20;49.30;;;;;;4933495;29;20111;-75
2022/04/16 10:50:11;;;;;;;3.25;1.73;;;21.30;49.40;;;;;;4933840;29;20082;-75
2022/04/16 10:52:37;;;;;;;3.42;1.90;;;21.30;49.50;;;;;;4933673;29;20040;-75
2022/04/16 10:55:06;;;;;;;2.70;1.70;;;21.30;49.50;;;;;;4933467;29;20122;-74
2022/04/16 10:57:35;;;;;;;2.50;1.67;;;21.30;49.50;;;;;;4933739;29;20075;-74
2022/04/16 11:00:14;;;;;;;3.22;1.70;;;21.20;49.30;;;;;;4933771;29;20058;-74
2022/04/16 11:02:39;;;;;;;2.75;2.00;;;21.20;49.30;;;;;;4933805;29;20082;-74
2022/04/16 11:05:07;;;;;;;2.67;1.90;;;21.20;49.20;;;;;;4933230;29;20032;-74
2022/04/16 11:07:35;;;;;;;2.83;1.88;;;21.20;49.30;;;;;;4937069;29;20091;-74
2022/04/16 11:10:05;;;;;;;2.67;1.83;;;21.20;49.30;;;;;;4937566;29;20447;-74
2022/04/16 11:12:31;;;;;;;2.88;1.70;;;21.20;49.30;;;;;;4937221;29;20039;-76
2022/04/16 11:14:57;;;;;;;2.63;1.60;;;21.20;49.30;;;;;;4937505;29;20035;-74
2022/04/16 11:17:24;;;;;;;5.03;1.98;;;21.20;49.30;;;;;;4936857;29;20039;-74
2022/04/16 11:20:07;;;;;;;2.83;1.50;;;21.20;49.30;;;;;;4935933;29;20028;-75
2022/04/16 11:22:33;;;;;;;2.53;1.83;;;21.20;49.40;;;;;;4937063;29;20525;-75
2022/04/16 11:25:00;;;;;;;3.35;1.98;;;21.20;49.40;;;;;;4935805;29;20032;-74
2022/04/16 11:36:04;;;;;;;2.50;1.70;;;21.20;49.50;;;;;;4936775;29;20130;-74
2022/04/16 11:38:35;;;;;;;2.75;1.80;;;21.20;49.50;;;;;;4951305;29;20110;-74
2022/04/16 11:41:04;;;;;;;3.10;2.00;;;21.10;49.40;;;;;;4937360;29;20045;-76
2022/04/16 11:43:31;;;;;;;3.17;1.80;;;21.20;49.50;;;;;;4937218;29;20026;-76
2022/04/16 11:45:58;;;;;;;2.47;1.60;;;21.20;49.40;;;;;;4935397;29;20095;-76
2022/04/16 11:48:24;;;;;;;2.30;1.60;;;21.20;50.00;;;;;;4935103;29;20036;-75
2022/04/16 11:50:51;;;;;;;2.83;1.90;;;21.20;49.50;;;;;;4936515;29;20031;-75
2022/04/16 11:53:17;;;;;;;2.70;1.60;;;21.20;49.50;;;;;;4936199;29;20107;-76
2022/04/16 11:55:47;;;;;;;2.28;1.60;;;21.20;49.50;;;;;;4936445;29;20441;-76
2022/04/16 11:58:12;;;;;;;;;;;21.20;49.40;;;;;;4936396;29;20031;-76
2022/04/16 12:00:54;;;;;;;2.97;1.73;;;21.20;49.50;;;;;;4936447;29;19977;-76
2022/04/16 12:03:20;;;;;;;2.63;1.60;;;21.20;49.50;;;;;;4935076;29;20035;-76
2022/04/16 12:05:50;;;;;;;2.78;1.85;;;21.20;49.50;;;;;;4936107;29;20511;-75
2022/04/16 12:08:19;;;;;;;2.70;1.70;;;21.20;49.50;;;;;;4935203;29;20090;-75
2022/04/16 12:10:46;;;;;;;2.60;1.67;;;21.20;49.60;;;;;;4936097;29;20027;-75
2022/04/16 12:13:14;;;;;;;2.72;1.60;;;21.10;49.50;;;;;;4936208;29;20045;-75
2022/04/16 12:15:44;;;;;;;3.00;1.67;;;21.10;49.60;;;;;;4935322;29;20107;-75
2022/04/16 12:18:12;;;;;;;2.17;1.60;;;21.10;49.60;;;;;;4934774;29;20036;-75
2022/04/16 12:20:49;;;;;;;2.60;1.80;;;21.10;49.50;;;;;;4935892;29;20032;-75
2022/04/16 12:23:21;;;;;;;2.05;1.63;;;21.10;49.50;;;;;;4935952;29;20032;-76
2022/04/16 12:25:48;;;;;;;2.28;1.60;;;21.10;49.60;;;;;;4935983;29;20031;-76
2022/04/16 12:28:14;;;;;;;2.72;1.60;;;21.10;49.70;;;;;;4934154;29;20032;-76
2022/04/16 12:30:49;;;;;;;2.13;1.55;;;21.10;50.20;;;;;;4935888;29;20119;-75
2022/04/16 12:33:15;;;;;;;3.15;1.85;;;21.10;49.70;;;;;;4935572;29;20028;-76
2022/04/16 12:35:47;;;;;;;2.72;1.70;;;21.10;49.60;;;;;;4935514;29;20054;-76
2022/04/16 12:38:17;;;;;;;2.75;1.73;;;21.10;49.60;;;;;;4934276;29;20023;-75
2022/04/16 12:40:44;;;;;;;2.72;1.70;;;21.10;49.60;;;;;;4934425;29;20032;-76
2022/04/16 12:43:10;;;;;;;3.28;1.75;;;21.10;49.50;;;;;;4934338;29;20059;-76
2022/04/16 12:45:36;;;;;;;3.45;1.77;;;21.10;49.60;;;;;;4935485;29;20055;-76
2022/04/16 12:48:02;;;;;;;2.72;1.85;;;21.10;49.60;;;;;;4935420;29;20031;-76
2022/04/16 12:50:29;;;;;;;2.08;1.65;;;21.10;49.60;;;;;;4935659;29;20060;-76
2022/04/16 12:52:55;;;;;;;3.22;1.70;;;21.10;49.60;;;;;;4935252;29;20024;-76
2022/04/16 12:55:21;;;;;;;2.47;1.60;;;21.10;49.60;;;;;;4935169;29;20050;-75
2022/04/16 12:57:47;;;;;;;2.65;1.70;;;21.10;49.60;;;;;;4935124;29;20040;-75
2022/04/16 13:00:16;;;;;;;2.63;1.65;;;21.10;49.60;;;;;;4935202;29;20460;-75
2022/04/16 13:02:44;;;;;;;2.58;1.70;;;21.10;49.60;;;;;;4935311;29;20034;-76
2022/04/16 13:05:11;;;;;;;2.30;1.75;;;21.10;49.50;;;;;;4935178;29;20035;-75
2022/04/16 13:07:37;;;;;;;2.47;1.80;;;21.10;49.40;;;;;;4934955;29;20239;-76
2022/04/16 13:10:03;;;;;;;2.75;1.70;;;21.10;49.70;;;;;;4934168;29;20444;-76